Tiempo atmosférico en la estación meteorológica de Sabiñanigo, Huesca (775 m.)



Fecha
DESCASC
Temp. máxima en grados centígrados (hora)
DESCASC
Temp. mínima en grados centígrados (hora)
DESCASC
Temp. media en grados centígrados
DESCASC
Racha de viento máxima en m/sg (hora)
DESCASC
Velocidad máxima media en intervalos de 10 minutos(hora)
DESCASC
Precipitaciones diarias en mm
DESCASC
Precipitaciones de 00:00 a 06:00 en mm
DESCASC
Precipitaciones de 06:00 a 12:00 en mm
DESCASC
Precipitaciones de 12:00 a 18:00 en mm
DESCASC
Precipitaciones de 18:00 a 24:00 en mm
DESCASC
22-01-2020 11.1 (14:40) -0.4 (00:00) 5.4 8.61 (15:20) 4.44 (15:30) 30.2 2 0 6.4 21.8
21-01-2020 2.9 (16:20) -2 (00:10) 0.5 3.06 (11:10) 1.67 (11:10) 0.8 0 0.2 0.6 0
20-01-2020 4.2 (15:30) -5 (07:40) -0.4 9.72 (00:10) 5.83 (00:10) 0 0 0 0 0
19-01-2020 9.9 (13:50) 1.8 (00:00) 5.8 17.78 (15:20) 8.89 (15:20) 8 7.8 0 0.2 0
18-01-2020 10.5 (15:20) -2.1 (-00:0) 4.2 5.56 (17:10) 2.5 (16:50) 1.2 0 0 0 1.2
17-01-2020 7.8 (14:30) -0.8 (-00:0) 3.5 12.78 (12:40) 6.11 (15:40) 4.6 1.8 0.2 2.6 0
16-01-2020 13.5 (16:40) -2.3 (-00:0) 5.6 4.72 (17:40) 2.22 (17:30) 0 0 0 0 0
15-01-2020 13.4 (14:30) -4.4 (-00:0) 4.5 4.72 (17:10) 2.5 (16:40) 0 0 0 0 0
14-01-2020 12.2 (15:20) -5.8 (-00:0) 3.2 3.89 (14:10) 2.5 (14:10) 0 0 0 0 0
13-01-2020 10.2 (14:50) -6.3 (-00:0) 1.9 4.44 (15:50) 1.94 (15:30) 0 0 0 0 0
12-01-2020 10.9 (14:40) -7 (-00:0) 1.9 4.72 (15:00) 2.78 (15:00) 0 0 0 0 0
11-01-2020 10.5 (16:00) -5.5 (-00:0) 2.5 3.33 (00:20) 1.94 (16:40) 0 0 0 0 0
10-01-2020 11.5 (14:20) -1.1 (-00:0) 5.2 5.83 (00:30) 3.06 (01:20) 0 0 0 0 0
09-01-2020 14.6 (15:50) -2.8 (-00:0) 5.9 6.94 (16:50) 3.89 (16:50) 0 0 0 0 0
08-01-2020 15.4 (15:40) -2.7 (-00:0) 6.3 3.33 (16:10) 1.94 (16:20) 0 0 0 0 0
07-01-2020 11.8 (16:00) -4.8 (-00:0) 3.5 2.78 (15:00) 1.67 (15:00) 0 0 0 0 0
06-01-2020 12.3 (14:50) -4.9 (-00:0) 3.7 4.72 (15:40) 3.33 (15:30) 0 0 0 0 0
05-01-2020 14.3 (16:00) -4 (-00:0) 5.2 2.5 (16:30) 1.39 (16:30) 0 0 0 0 0
04-01-2020 10.6 (15:10) -3.8 (-00:0) 3.4 2.22 (16:30) 1.39 (16:30) 0 0 0 0 0
03-01-2020 8.3 (14:40) -2.5 (-00:0) 2.9 4.72 (15:00) 2.78 (15:00) 0 0 0 0 0
02-01-2020 12.6 (14:50) -4.4 (-00:0) 4.1 3.33 (14:30) 1.94 (15:00) 0 0 0 0 0
01-01-2020 11.8 (15:40) -4.6 (-00:0) 3.6 2.22 (17:00) 1.11 (17:10) 0 0 0 0 0
31-12-2019 8 (14:40) -3 (-00:0) 2.5 5.83 (17:30) 3.06 (17:30) 0 0 0 0 0
30-12-2019 -- (--) -- (--) -- -- (--) -- (--) -- 0 0 0 --
29-12-2019 11.7 (14:50) -3.3 (-00:0) 4.2 3.89 (16:00) 2.5 (15:50) 0 0 0 0 0
28-12-2019 14.3 (15:30) -3.7 (-00:0) 5.3 2.22 (14:20) 1.39 (17:30) 0 0 0 0 0
27-12-2019 12.7 (15:30) -3.1 (-00:0) 4.8 2.5 (16:40) 1.39 (16:40) 0 0 0 0 0
26-12-2019 12.7 (14:50) -0.2 (00:00) 6.2 5.28 (15:20) 3.61 (15:30) 0 0 0 0 0
25-12-2019 15.1 (15:40) -0.1 (00:00) 7.5 2.5 (16:30) 1.11 (16:30) 0 0 0 0 0

Gráficas

Temp. máximas Temp. mínimas Temp. medias Precipitaciones Rachas de viento máximas Velocidades máximas media en intervalos de 10 minutos

Datos horarios

Fecha y hora oficial Temperatura (ºC) Velocidad del viento (km/h) Dirección del viento Racha (km/h) Dirección de racha Precipitación (mm) Presión (hPa) Tendencia (hPa) Humedad (%)
2020-01-23 23:00:00 1.6 0 Calma 6 Sudeste 0 -- -- 98
2020-01-23 22:00:00 1.3 0 Calma 7 Sur 0 -- -- 98
2020-01-23 21:00:00 1.2 2 Sur 6 Sur 0 -- -- 98
2020-01-23 20:00:00 1 2 Sudeste 5 Sur 0 -- -- 97
2020-01-23 19:00:00 1.7 0 Calma 5 Sudeste 0 -- -- 96
2020-01-23 18:00:00 2.6 2 Sudeste 6 Sur 0 -- -- 96
2020-01-23 17:00:00 3 0 Calma 10 Norte 0 -- -- 96
2020-01-23 16:00:00 2.6 5 Nordeste 10 Este 1 -- -- 98
2020-01-23 15:00:00 2.3 0 Calma 16 Sur 1 -- -- 97
2020-01-23 14:00:00 2.6 2 Sur 6 Sur 0.2 -- -- 96
2020-01-23 13:00:00 2.4 4 Sur 10 Sudeste 0 -- -- 97
2020-01-23 12:00:00 2.3 0 Calma 3 Nordeste 0.2 -- -- 98
2020-01-23 11:00:00 1.4 0 Calma 6 Este 0 -- -- 99
2020-01-23 10:00:00 1 0 Calma 7 Sudeste 0 -- -- 99
2020-01-23 09:00:00 0.6 0 Calma 0 Calma 0.2 -- -- 99
2020-01-23 08:00:00 0.5 0 Calma 0 Calma 0.8 -- -- 99
2020-01-23 07:00:00 0.6 0 Calma 4 Sudoeste 4.6 -- -- 99
2020-01-23 06:00:00 0.7 0 Calma 0 Calma 3.2 -- -- 98
2020-01-23 05:00:00 0.5 0 Calma -- -- 1.6 -- -- 98
2020-01-23 04:00:00 0.5 0 Calma 0 Calma 2 -- -- 98
2020-01-23 03:00:00 0.7 0 Calma 0 Calma 5 -- -- 98
2020-01-23 02:00:00 0.3 0 Calma -- -- 3 -- -- 98
2020-01-23 01:00:00 0.3 0 Calma -- -- 4.6 -- -- 97
2020-01-23 00:00:00 0.2 0 Calma -- -- 5.2 -- -- 96
2020-01-22 23:00:00 0.3 0 Calma 4 Nordeste 4 -- -- 95
2020-01-22 22:00:00 0.8 0 Calma 14 Este 3.6 -- -- 94
2020-01-22 21:00:00 2.6 3 Este 9 Sudeste 3.2 -- -- 92
2020-01-22 20:00:00 3.9 3 Nordeste 10 Sudoeste 3 -- -- 92
2020-01-22 19:00:00 4.8 5 Oeste 15 Oeste 2.8 -- -- 93
2020-01-22 18:00:00 5.3 0 Calma 9 Oeste 2.2 -- -- 94
2020-01-22 17:00:00 5.8 6 Oeste 28 Sudeste 3.4 -- -- 91
2020-01-22 16:00:00 7.9 8 Este 31 Este 0.8 -- -- 78
2020-01-22 15:00:00 10.9 12 Este 22 Este 0 -- -- 58
2020-01-22 14:00:00 9.5 3 Sudeste 8 Este 0 -- -- 71
2020-01-22 13:00:00 7.2 0 Calma 6 Este 0 -- -- 82
2020-01-22 12:00:00 5.6 3 Nordeste 6 Este 0 -- -- 90
2020-01-22 11:00:00 3.1 0 Calma 5 Noroeste 0 -- -- 97
2020-01-22 10:00:00 1.2 0 Calma 4 Norte 0 -- -- 97
2020-01-22 09:00:00 0.9 0 Calma 4 Este 0 -- -- 96
2020-01-22 08:00:00 0.9 3 Sudoeste 9 Oeste 0 -- -- 96
2020-01-22 07:00:00 1.5 6 Oeste 14 Oeste 0 -- -- 96
2020-01-22 06:00:00 1.6 3 Sur 8 Sudeste 0 -- -- 95
2020-01-22 05:00:00 2.3 5 Sur 15 Norte 0 -- -- 93
2020-01-22 04:00:00 2.8 8 Nordeste 22 Nordeste 0.2 -- -- 97
2020-01-22 03:00:00 1.2 2 Nordeste 11 Oeste 1.6 -- -- 95
2020-01-22 02:00:00 0.7 4 Oeste 12 Oeste 0.2 -- -- 94
2020-01-22 01:00:00 0 2 Sudoeste 9 Oeste 0 -- -- 95
2020-01-22 00:00:00 -0.4 0 Calma 5 Norte 0 -- -- 95
2020-01-21 23:00:00 -0.5 0 Calma 6 Norte 0 -- -- 94
2020-01-21 22:00:00 -0.4 0 Calma 6 Oeste 0 -- -- 93
2020-01-21 21:00:00 0 2 Nordeste 5 Nordeste 0 -- -- 92
2020-01-21 20:00:00 0.5 0 Calma 4 Este 0 -- -- 90
2020-01-21 19:00:00 1.1 3 Nordeste 6 Nordeste 0 -- -- 89
2020-01-21 18:00:00 2 2 Sudeste 5 Nordeste 0 -- -- 87
2020-01-21 17:00:00 2.8 2 Este 5 Este 0 -- -- 83
2020-01-21 16:00:00 2.8 2 Sudeste 9 Noroeste 0.2 -- -- 84
2020-01-21 15:00:00 2.3 2 Nordeste 6 Este 0.2 -- -- 82
2020-01-21 14:00:00 1.7 2 Nordeste 7 Nordeste 0.2 -- -- 82
2020-01-21 13:00:00 1.8 3 Nordeste 6 Oeste 0 -- -- 79
2020-01-21 12:00:00 1.7 0 Calma 11 Oeste 0 -- -- 76
2020-01-21 11:00:00 1 3 Noroeste 6 Oeste 0 -- -- 82
2020-01-21 10:00:00 0.2 0 Calma 5 Este 0 -- -- 84
2020-01-21 09:00:00 -0.6 0 Calma 4 Nordeste 0 -- -- 88
2020-01-21 08:00:00 -0.8 0 Calma 7 Nordeste 0 -- -- 88
2020-01-21 07:00:00 -0.6 0 Calma 6 Oeste 0.2 -- -- 85
2020-01-21 06:00:00 -0.7 0 Calma 9 Norte 0 -- -- 83
2020-01-21 05:00:00 -0.7 2 Sudeste 6 Noroeste 0 -- -- 83
2020-01-21 04:00:00 -0.9 0 Calma 3 Este 0 -- -- 84
2020-01-21 03:00:00 -1.2 0 Calma 4 Sudoeste 0 -- -- 81
2020-01-21 02:00:00 -1.2 0 Calma 6 Oeste 0 -- -- 81
2020-01-21 01:00:00 -1.7 0 Calma 4 Norte 0 -- -- 84
2020-01-21 00:00:00 -1.9 0 Calma 6 Noroeste 0 -- -- 82
2020-01-20 23:00:00 -2 0 Calma 4 Este 0 -- -- 82
2020-01-20 22:00:00 -2.3 0 Calma 4 Sudeste 0 -- -- 82
2020-01-20 21:00:00 -1.8 0 Calma 4 Norte 0 -- -- 80
2020-01-20 20:00:00 -1.1 0 Calma 6 Este 0 -- -- 75
2020-01-20 19:00:00 0.6 0 Calma 9 Noroeste 0 -- -- 66
2020-01-20 18:00:00 2.5 5 Norte 9 Oeste 0 -- -- 54
2020-01-20 17:00:00 3.6 0 Calma 11 Sudoeste 0 -- -- 47
2020-01-20 16:00:00 4.2 6 Sudoeste 10 Sudoeste 0 -- -- 42
2020-01-20 15:00:00 4 3 Oeste 11 Sudoeste 0 -- -- 44
2020-01-20 14:00:00 3.4 2 Noroeste 11 Noroeste 0 -- -- 43
2020-01-20 13:00:00 2.4 5 Oeste 9 Sudoeste 0 -- -- 44
2020-01-20 12:00:00 0.9 0 Calma 6 Sudeste 0 -- -- 50
2020-01-20 11:00:00 -1.4 0 Calma 4 Sudeste 0 -- -- 65
2020-01-20 10:00:00 -2.8 0 Calma 7 Sudoeste 0 -- -- 73
2020-01-20 09:00:00 -4.3 2 Sur 5 Sur 0 -- -- 77
2020-01-20 08:00:00 -4.8 2 Sur 7 Sur 0 -- -- 75
2020-01-20 07:00:00 -4.8 3 Sur 9 Sur 0 -- -- 73
2020-01-20 06:00:00 -4.1 4 Sur 11 Sur 0 -- -- 69
2020-01-20 05:00:00 -3.3 4 Sur 18 Sudeste 0 -- -- 63
2020-01-20 04:00:00 -2.8 6 Sur 13 Sur 0 -- -- 59
2020-01-20 03:00:00 -1.8 6 Sur 13 Sur 0 -- -- 52
2020-01-20 02:00:00 -0.5 6 Sur 15 Sur 0 -- -- 42
2020-01-20 01:00:00 2.7 9 Nordeste 35 Noroeste 0 -- -- 29
2020-01-20 00:00:00 3.2 21 Norte 40 Norte 0 -- -- 29
2020-01-19 23:00:00 3.1 16 Norte 43 Norte 0 -- -- 29
2020-01-19 22:00:00 3.1 19 Norte 48 Norte 0 -- -- 30
2020-01-19 21:00:00 3.3 22 Norte 57 Norte 0 -- -- 29
2020-01-19 20:00:00 4.2 31 Norte 60 Nordeste 0 -- -- 22
2020-01-19 19:00:00 4.8 31 Norte 60 Norte 0 -- -- 20
2020-01-19 18:00:00 5.3 32 Norte 54 Norte 0 -- -- 20
2020-01-19 17:00:00 6.4 28 Norte 55 Norte 0 -- -- 20
2020-01-19 16:00:00 7.9 21 Norte 64 Noroeste 0 -- -- 16
2020-01-19 15:00:00 9.1 27 Norte 50 Norte 0 -- -- 14
2020-01-19 14:00:00 9.9 18 Norte 41 Norte 0.2 -- -- 16
2020-01-19 13:00:00 9 17 Norte 36 Norte 0 -- -- 20
2020-01-19 12:00:00 5.3 8 Sur 17 Sur 0 -- -- 83
2020-01-19 11:00:00 2.8 7 Sudeste 20 Sudeste 0 -- -- 96
2020-01-19 10:00:00 2.5 4 Sur 9 Sur 0 -- -- 97
2020-01-19 09:00:00 2 0 Calma 5 Nordeste 0 -- -- 97
2020-01-19 08:00:00 1.8 0 Calma 6 Sur 0 -- -- 96
2020-01-19 07:00:00 1.9 2 Sur 9 Sudeste 0 -- -- 96
2020-01-19 06:00:00 2 4 Sur 8 Sudeste 0 -- -- 96
2020-01-19 05:00:00 1.9 2 Sudeste 12 Este 1.4 -- -- 95
2020-01-19 04:00:00 2.3 6 Este 12 Este 1.6 -- -- 94
2020-01-19 03:00:00 2.9 2 Norte 5 Norte 1.2 -- -- 94
2020-01-19 02:00:00 3.3 3 Norte 8 Noroeste 2 -- -- 92
2020-01-19 01:00:00 3.9 5 Noroeste 12 Norte 1.6 -- -- 91
2020-01-19 00:00:00 4.3 2 Noroeste 16 Norte 0.4 -- -- 82
2020-01-18 23:00:00 4.5 5 Norte 16 Norte 0.2 -- -- 80
2020-01-18 22:00:00 5.1 2 Este 13 Nordeste 0.6 -- -- 79
2020-01-18 21:00:00 6.4 4 Nordeste 9 Este 0 -- -- 61
2020-01-18 20:00:00 6.4 0 Calma 15 Sudeste 0 -- -- 66
2020-01-18 19:00:00 6.8 6 Sudeste 15 Nordeste 0 -- -- 59
2020-01-18 18:00:00 7.9 6 Este 20 Sudoeste 0 -- -- 62
2020-01-18 17:00:00 8.8 9 Sur 19 Sudoeste 0 -- -- 59
2020-01-18 16:00:00 10.3 4 Sudeste 16 Este 0 -- -- 49
2020-01-18 15:00:00 10.2 0 Calma 10 Norte 0 -- -- 42
2020-01-18 14:00:00 8.9 4 Norte 9 Norte 0 -- -- 46
2020-01-18 13:00:00 7.4 3 Oeste 8 Sudoeste 0 -- -- 52
2020-01-18 12:00:00 4.7 2 Sudoeste 17 Sur 0 -- -- 67
2020-01-18 11:00:00 2.4 3 Sur 8 Sudeste 0 -- -- 85
2020-01-18 10:00:00 0.7 3 Este 4 Este 0 -- -- 91
2020-01-18 09:00:00 0.1 0 Calma 8 Sur 0 -- -- 90
2020-01-18 08:00:00 0.2 3 Sudeste 10 Sudeste 0 -- -- 90
2020-01-18 07:00:00 -0.2 0 Calma 9 Nordeste 0 -- -- 92
2020-01-18 06:00:00 -0.3 2 Nordeste 13 Sudeste 0 -- -- 92
2020-01-18 05:00:00 -1.1 4 Norte 8 Noroeste 0 -- -- 95
2020-01-18 04:00:00 -1.7 4 Sur 8 Sudoeste 0 -- -- 95
2020-01-18 03:00:00 -2 0 Calma 5 Este 0 -- -- 94
2020-01-18 02:00:00 -1.8 2 Este 5 Sudeste 0 -- -- 92
2020-01-18 01:00:00 -1 2 Este 6 Este 0 -- -- 92
2020-01-18 00:00:00 -0.8 2 Sudeste 8 Este 0 -- -- 92
2020-01-17 23:00:00 -0.4 2 Este 6 Sur 0 -- -- 92
2020-01-17 22:00:00 0.4 2 Nordeste 6 Sudeste 0 -- -- 88
2020-01-17 21:00:00 1.4 4 Sudeste 6 Sudeste 0 -- -- 84
2020-01-17 20:00:00 3.7 3 Oeste 17 Noroeste 0 -- -- 76
2020-01-17 19:00:00 3.8 2 Sudeste 9 Nordeste 0 -- -- 75
2020-01-17 18:00:00 5.2 6 Sur 27 Sudoeste 0 -- -- 67
2020-01-17 17:00:00 6.8 13 Sudoeste 34 Oeste 0 -- -- 64
2020-01-17 16:00:00 7.8 14 Oeste 38 Oeste 0 -- -- 64
2020-01-17 15:00:00 7.6 17 Oeste 27 Oeste 0 -- -- 72
2020-01-17 14:00:00 6.7 13 Sudoeste 23 Oeste 0.2 -- -- 85
2020-01-17 13:00:00 5.8 5 Oeste 46 Oeste 2.4 -- -- 91
2020-01-17 12:00:00 7.6 3 Oeste 13 Noroeste 0.2 -- -- 83
2020-01-17 11:00:00 6.6 4 Sur 15 Sudeste 0 -- -- 96
2020-01-17 10:00:00 5.2 5 Sur 9 Sudeste 0 -- -- 97
2020-01-17 09:00:00 4.1 0 Calma 3 Este 0 -- -- 96
2020-01-17 08:00:00 4.8 0 Calma 5 Este 0 -- -- 96
2020-01-17 07:00:00 5.2 0 Calma 6 Sur 0 -- -- 96
2020-01-17 06:00:00 5.3 4 Este 12 Nordeste 0 -- -- 96
2020-01-17 05:00:00 5.4 3 Sur 8 Noroeste 0 -- -- 95
2020-01-17 04:00:00 5.4 3 Oeste 14 Sudeste 1.4 -- -- 95
2020-01-17 03:00:00 5.1 3 Oeste 15 Oeste 0.4 -- -- 91
2020-01-17 02:00:00 5 2 Norte 5 Este 0 -- -- 89
2020-01-17 01:00:00 4.9 0 Calma 7 Oeste 0 -- -- 88
2020-01-17 00:00:00 5.1 2 Oeste 5 Sur 0 -- -- 86
2020-01-16 23:00:00 5.5 3 Sur 8 Sur 0 -- -- 86
2020-01-16 22:00:00 6.5 2 Sur 7 Oeste 0 -- -- 81
2020-01-16 21:00:00 7.7 2 Sur 7 Sudoeste 0 -- -- 78
2020-01-16 20:00:00 8.5 4 Sur 7 Sur 0 -- -- 74
2020-01-16 19:00:00 9.4 6 Este 12 Este 0 -- -- 70
2020-01-16 18:00:00 11.3 5 Sudeste 17 Sur 0 -- -- 62
2020-01-16 17:00:00 13.2 5 Este 9 Nordeste 0 -- -- 55
2020-01-16 16:00:00 12.7 0 Calma 4 Norte 0 -- -- 55
2020-01-16 15:00:00 12.7 2 Sudeste 6 Este 0 -- -- 55
2020-01-16 14:00:00 11.8 2 Nordeste 5 Nordeste 0 -- -- 56
2020-01-16 13:00:00 10.7 0 Calma 10 Norte 0 -- -- 56
2020-01-16 12:00:00 6.6 5 Noroeste 8 Norte 0 -- -- 69
2020-01-16 11:00:00 3.2 0 Calma 4 Norte 0 -- -- 89
2020-01-16 10:00:00 0.2 0 Calma 4 Sur 0 -- -- 95
2020-01-16 09:00:00 -1.4 0 Calma 9 Este 0 -- -- 95
2020-01-16 08:00:00 -1.9 0 Calma 9 Norte 0 -- -- 95
2020-01-16 07:00:00 -2 2 Este 6 Nordeste 0 -- -- 95
2020-01-16 06:00:00 -2.2 0 Calma 4 Sur 0 -- -- 94
2020-01-16 05:00:00 -1.9 0 Calma 4 Este 0 -- -- 93
2020-01-16 04:00:00 -1.4 0 Calma 4 Norte 0 -- -- 93
2020-01-16 03:00:00 -0.8 0 Calma 9 Este 0 -- -- 92
2020-01-16 02:00:00 -0.4 2 Sudeste 8 Este 0 -- -- 91
2020-01-16 01:00:00 0.5 0 Calma 5 Sudeste 0 -- -- 89
2020-01-16 00:00:00 1.5 0 Calma 8 Sudeste 0 -- -- 86
2020-01-15 23:00:00 3.4 0 Calma 5 Sudoeste 0 -- -- 80
2020-01-15 22:00:00 5.3 0 Calma 5 Noroeste 0 -- -- 76
2020-01-15 21:00:00 6.5 2 Sudeste 9 Sur 0 -- -- 70
2020-01-15 20:00:00 7.3 2 Sudoeste 14 Este 0 -- -- 65
2020-01-15 19:00:00 7.7 2 Sudeste 8 Este 0 -- -- 64
2020-01-15 18:00:00 9.2 3 Sudeste 17 Sur 0 -- -- 56
2020-01-15 17:00:00 11.6 8 Sur 16 Sur 0 -- -- 47
2020-01-15 16:00:00 13.2 5 Sudeste 12 Sudeste 0 -- -- 42
2020-01-15 15:00:00 12.9 6 Sur 14 Sur 0 -- -- 42
2020-01-15 14:00:00 12 5 Sur 15 Sur 0 -- -- 42
2020-01-15 13:00:00 10.2 6 Sur 15 Sur 0 -- -- 44
2020-01-15 12:00:00 5.6 4 Sur 8 Sudeste 0 -- -- 59
2020-01-15 11:00:00 1.3 0 Calma 9 Sur 0 -- -- 72
2020-01-15 10:00:00 -1.4 0 Calma 8 Noroeste 0 -- -- 84
2020-01-15 09:00:00 -2.5 3 Sudeste 10 Sudeste 0 -- -- 84
2020-01-15 08:00:00 -2.8 2 Sudoeste 9 Sudeste 0 -- -- 88
2020-01-15 07:00:00 -3.5 2 Nordeste 5 Nordeste 0 -- -- 88
2020-01-15 06:00:00 -3.4 0 Calma 7 Nordeste 0 -- -- 88
2020-01-15 05:00:00 -4.1 3 Sudeste 7 Este 0 -- -- 90
2020-01-15 04:00:00 -4.3 3 Noroeste 6 Nordeste 0 -- -- 90
2020-01-15 03:00:00 -4 0 Calma 5 Sudeste 0 -- -- 88
2020-01-15 02:00:00 -3.4 2 Este 4 Nordeste 0 -- -- 90
2020-01-15 01:00:00 -2.9 0 Calma 6 Este 0 -- -- 89
2020-01-15 00:00:00 -2.4 0 Calma 4 Sur 0 -- -- 88
2020-01-14 23:00:00 -1.9 0 Calma 4 Nordeste 0 -- -- 86
2020-01-14 22:00:00 -1.4 0 Calma 3 Noroeste 0 -- -- 86
2020-01-14 21:00:00 -0.6 0 Calma 7 Este 0 -- -- 83
2020-01-14 20:00:00 0.7 2 Este 6 Este 0 -- -- 78
2020-01-14 19:00:00 3.2 2 Sur 8 Sur 0 -- -- 65
2020-01-14 18:00:00 6.1 3 Este 9 Sudeste 0 -- -- 53
2020-01-14 17:00:00 10.8 5 Sur 8 Sur 0 -- -- 40
2020-01-14 16:00:00 12.1 4 Oeste 8 Oeste 0 -- -- 31
2020-01-14 15:00:00 11.9 4 Sudeste 14 Sur 0 -- -- 36
2020-01-14 14:00:00 10.8 7 Sur 13 Sudeste 0 -- -- 37
2020-01-14 13:00:00 7.1 4 Sudeste 11 Sur 0 -- -- 45
2020-01-14 12:00:00 2.6 6 Sur 12 Sur 0 -- -- 66
2020-01-14 11:00:00 -2.3 0 Calma 5 Sur 0 -- -- 84
2020-01-14 10:00:00 -4.6 0 Calma 4 Sudeste 0 -- -- 91
2020-01-14 09:00:00 -5.6 2 Sudeste 5 Sudeste 0 -- -- 91
2020-01-14 08:00:00 -5.8 0 Calma 4 Sudoeste 0 -- -- 91
2020-01-14 07:00:00 -5.3 0 Calma 5 Sur 0 -- -- 91
2020-01-14 06:00:00 -5.3 0 Calma 8 Sudoeste 0 -- -- 90
2020-01-14 05:00:00 -5 3 Sur 7 Sur 0 -- -- 90
2020-01-14 04:00:00 -4.7 0 Calma 5 Sudoeste 0 -- -- 90
2020-01-14 03:00:00 -4.2 0 Calma 4 Sudeste 0 -- -- 90
2020-01-14 02:00:00 -3.6 0 Calma 4 Noroeste 0 -- -- 88
2020-01-14 01:00:00 -3.2 3 Sudoeste 7 Sudoeste 0 -- -- 88
2020-01-14 00:00:00 -2.6 0 Calma 6 Sudeste 0 -- -- 88
2020-01-13 23:00:00 -2.6 2 Sudeste 4 Este 0 -- -- 87
2020-01-13 22:00:00 -1.6 0 Calma 4 Este 0 -- -- 85
2020-01-13 21:00:00 -1.2 0 Calma 4 Sudeste 0 -- -- 84
2020-01-13 20:00:00 -0.2 0 Calma 5 Sur 0 -- -- 79
2020-01-13 19:00:00 2 3 Sur 6 Sudeste 0 -- -- 70
2020-01-13 18:00:00 5 2 Sur 9 Sur 0 -- -- 59
2020-01-13 17:00:00 8.6 4 Sur 9 Sur 0 -- -- 43
2020-01-13 16:00:00 9.4 6 Sur 16 Sur 0 -- -- 40
2020-01-13 15:00:00 10.2 3 Sur 6 Sudoeste 0 -- -- 42
2020-01-13 14:00:00 8.3 0 Calma 5 Nordeste 0 -- -- 47
2020-01-13 13:00:00 4.3 0 Calma 4 Nordeste 0 -- -- 62
2020-01-13 12:00:00 0.8 0 Calma 4 Este 0 -- -- 80
2020-01-13 11:00:00 -1.7 0 Calma 3 Nordeste 0 -- -- 90
2020-01-13 10:00:00 -4.2 0 Calma 5 Norte 0 -- -- 94
2020-01-13 09:00:00 -5.9 0 Calma 6 Sudoeste 0 -- -- 93
2020-01-13 08:00:00 -6.3 0 Calma 3 Norte 0 -- -- 93
2020-01-13 07:00:00 -6.1 0 Calma 4 Sudoeste 0 -- -- 92
2020-01-13 06:00:00 -5.9 2 Sudeste 6 Oeste 0 -- -- 92
2020-01-13 05:00:00 -5.6 2 Este 3 Este 0 -- -- 92
2020-01-13 04:00:00 -5.4 0 Calma 4 Sudeste 0 -- -- 92
2020-01-13 03:00:00 -4.8 0 Calma 2 Nordeste 0 -- -- 92
2020-01-13 02:00:00 -4.8 0 Calma 5 Este 0 -- -- 91
2020-01-13 01:00:00 -3.9 0 Calma 5 Sudoeste 0 -- -- 90
2020-01-13 00:00:00 -3.4 2 Sur 5 Sudeste 0 -- -- 89
2020-01-12 23:00:00 -2.7 0 Calma 4 Nordeste 0 -- -- 88
2020-01-12 22:00:00 -2 0 Calma 4 Norte 0 -- -- 86
2020-01-12 21:00:00 -1.4 0 Calma 7 Este 0 -- -- 83
2020-01-12 20:00:00 -0.2 0 Calma 4 Sudeste 0 -- -- 78
2020-01-12 19:00:00 2 4 Este 9 Este 0 -- -- 69
2020-01-12 18:00:00 4.5 2 Sur 8 Este 0 -- -- 58
2020-01-12 17:00:00 8.5 5 Sudoeste 14 Oeste 0 -- -- 42
2020-01-12 16:00:00 10.1 9 Oeste 15 Oeste 0 -- -- 39
2020-01-12 15:00:00 10.5 10 Oeste 17 Oeste 0 -- -- 40
2020-01-12 14:00:00 9.5 3 Oeste 9 Oeste 0 -- -- 37
2020-01-12 13:00:00 5.3 2 Sudeste 7 Norte 0 -- -- 52
2020-01-12 12:00:00 1.2 4 Norte 8 Norte 0 -- -- 68
2020-01-12 11:00:00 -2.5 0 Calma 4 Este 0 -- -- 86
2020-01-12 10:00:00 -5.3 0 Calma 2 Este 0 -- -- 94
2020-01-12 09:00:00 -6.7 0 Calma 5 Norte 0 -- -- 92
2020-01-12 08:00:00 -6.9 0 Calma 4 Sudeste 0 -- -- 91
2020-01-12 07:00:00 -6.4 3 Sudoeste 5 Sudoeste 0 -- -- 92
2020-01-12 06:00:00 -6.2 0 Calma 4 Este 0 -- -- 92
2020-01-12 05:00:00 -5.7 0 Calma 5 Norte 0 -- -- 92
2020-01-12 04:00:00 -5.6 0 Calma 4 Sudeste 0 -- -- 91
2020-01-12 03:00:00 -5.1 2 Oeste 5 Oeste 0 -- -- 91
2020-01-12 02:00:00 -4.5 3 Sudoeste 8 Oeste 0 -- -- 91
2020-01-12 01:00:00 -4.1 0 Calma 3 Este 0 -- -- 91
2020-01-12 00:00:00 -3.6 0 Calma 0 Calma 0 -- -- 89
2020-01-11 23:00:00 -3.1 0 Calma 2 Sudeste 0 -- -- 86
2020-01-11 22:00:00 -2.4 0 Calma 3 Sudeste 0 -- -- 86
2020-01-11 21:00:00 -1.7 0 Calma 4 Sudeste 0 -- -- 83
2020-01-11 20:00:00 -0.6 2 Este 5 Este 0 -- -- 76
2020-01-11 19:00:00 1.6 2 Sudeste 8 Este 0 -- -- 68
2020-01-11 18:00:00 4.3 4 Sudeste 7 Este 0 -- -- 59
2020-01-11 17:00:00 8.5 6 Oeste 11 Oeste 0 -- -- 41
2020-01-11 16:00:00 10.5 3 Sudoeste 9 Oeste 0 -- -- 38
2020-01-11 15:00:00 9.9 5 Oeste 9 Oeste 0 -- -- 38
2020-01-11 14:00:00 7.8 0 Calma 7 Norte 0 -- -- 42
2020-01-11 13:00:00 5.1 3 Sudeste 8 Este 0 -- -- 55
2020-01-11 12:00:00 1.1 0 Calma 8 Este 0 -- -- 80
2020-01-11 11:00:00 -1.7 0 Calma 3 Sudoeste 0 -- -- 95
2020-01-11 10:00:00 -4.4 0 Calma 5 Sudeste 0 -- -- 95
2020-01-11 09:00:00 -5.5 0 Calma 3 Nordeste 0 -- -- 93
2020-01-11 08:00:00 -5.3 0 Calma 4 Este 0 -- -- 94
2020-01-11 07:00:00 -5.1 0 Calma 4 Este 0 -- -- 93
2020-01-11 06:00:00 -4.6 0 Calma 3 Sudoeste 0 -- -- 93
2020-01-11 05:00:00 -4.3 0 Calma 4 Sudeste 0 -- -- 93
2020-01-11 04:00:00 -3.4 2 Este 5 Este 0 -- -- 93
2020-01-11 03:00:00 -3.2 0 Calma 5 Este 0 -- -- 92
2020-01-11 02:00:00 -2.2 0 Calma 8 Sudeste 0 -- -- 91
2020-01-11 01:00:00 -1.7 0 Calma 12 Este 0 -- -- 90
2020-01-11 00:00:00 -1.1 0 Calma 9 Sudoeste 0 -- -- 89
2020-01-10 23:00:00 -0.3 3 Sur 9 Este 0 -- -- 86
2020-01-10 22:00:00 0.3 0 Calma 7 Sudeste 0 -- -- 85
2020-01-10 21:00:00 1.2 2 Sur 8 Sudeste 0 -- -- 83
2020-01-10 20:00:00 3 2 Sudeste 13 Sudoeste 0 -- -- 75
2020-01-10 19:00:00 5.7 6 Sudoeste 17 Sur 0 -- -- 66
2020-01-10 18:00:00 6.5 0 Calma 14 Sur 0 -- -- 61
2020-01-10 17:00:00 9.9 6 Sur 14 Oeste 0 -- -- 52
2020-01-10 16:00:00 10.9 8 Sudoeste 18 Oeste 0 -- -- 47
2020-01-10 15:00:00 11.4 6 Sur 17 Sudeste 0 -- -- 50
2020-01-10 14:00:00 11.1 4 Este 11 Sudeste 0 -- -- 49
2020-01-10 13:00:00 8.7 2 Noroeste 10 Sur 0 -- -- 54
2020-01-10 12:00:00 7 4 Sur 10 Sur 0 -- -- 63
2020-01-10 11:00:00 4.6 2 Noroeste 17 Este 0 -- -- 73
2020-01-10 10:00:00 2.7 7 Este 15 Este 0 -- -- 88
2020-01-10 09:00:00 1 4 Sudeste 10 Sudeste 0 -- -- 91
2020-01-10 08:00:00 1.8 2 Sur 9 Sur 0 -- -- 89
2020-01-10 07:00:00 2.2 3 Sudeste 12 Oeste 0 -- -- 88
2020-01-10 06:00:00 3 3 Este 9 Este 0 -- -- 89
2020-01-10 05:00:00 3.8 2 Este 6 Oeste 0 -- -- 89
2020-01-10 04:00:00 4.3 3 Sudoeste 17 Oeste 0 -- -- 87
2020-01-10 03:00:00 4.7 10 Oeste 20 Oeste 0 -- -- 87
2020-01-10 02:00:00 5.1 3 Noroeste 20 Noroeste 0 -- -- 90
2020-01-10 01:00:00 5.5 4 Sudoeste 21 Noroeste 0 -- -- 86
2020-01-10 00:00:00 5.6 4 Oeste 12 Oeste 0 -- -- 82
2020-01-09 23:00:00 5.6 0 Calma 7 Sudoeste 0 -- -- 81
2020-01-09 22:00:00 5.1 0 Calma 6 Este 0 -- -- 83
2020-01-09 21:00:00 5.7 0 Calma 7 Este 0 -- -- 80
2020-01-09 20:00:00 6.9 0 Calma 6 Sudeste 0 -- -- 74
2020-01-09 19:00:00 9.5 4 Sur 7 Sur 0 -- -- 65
2020-01-09 18:00:00 11.2 3 Sur 15 Sur 0 -- -- 57
2020-01-09 17:00:00 13.1 10 Sur 25 Sudoeste 0 -- -- 48
2020-01-09 16:00:00 14.5 7 Sur 17 Sur 0 -- -- 47
2020-01-09 15:00:00 13.8 9 Sur 17 Sur 0 -- -- 47
2020-01-09 14:00:00 13.1 9 Sur 18 Sudeste 0 -- -- 48
2020-01-09 13:00:00 9.7 0 Calma 6 Sudeste 0 -- -- 57
2020-01-09 12:00:00 5.3 2 Norte 5 Norte 0 -- -- 78
2020-01-09 11:00:00 1.5 0 Calma 3 Sudeste 0 -- -- 95
2020-01-09 10:00:00 -1 0 Calma 4 Nordeste 0 -- -- 96
2020-01-09 09:00:00 -2.4 0 Calma 4 Sudeste 0 -- -- 95
2020-01-09 08:00:00 -2.6 0 Calma 4 Nordeste 0 -- -- 95
2020-01-09 07:00:00 -2.7 0 Calma -- -- 0 -- -- 94
2020-01-09 06:00:00 -2.3 0 Calma -- -- 0 -- -- 94
2020-01-09 05:00:00 -2.1 0 Calma 2 Sur 0 -- -- 94
2020-01-09 04:00:00 -1.8 0 Calma 4 Sudeste 0 -- -- 93
2020-01-09 03:00:00 -1.2 0 Calma 4 Sur 0 -- -- 92
2020-01-09 02:00:00 -0.8 3 Sur 8 Sur 0 -- -- 91
2020-01-09 01:00:00 -0.5 2 Sur 8 Sur 0 -- -- 90
2020-01-09 00:00:00 -0.2 3 Sur 9 Sur 0 -- -- 90
2020-01-08 23:00:00 0 0 Calma 4 Sur 0 -- -- 90
2020-01-08 22:00:00 0.8 2 Sudeste 4 Sur 0 -- -- 88
2020-01-08 21:00:00 1.8 0 Calma 6 Sudeste 0 -- -- 85
2020-01-08 20:00:00 3.2 0 Calma 6 Este 0 -- -- 83
2020-01-08 19:00:00 5.3 0 Calma 6 Sudeste 0 -- -- 76
2020-01-08 18:00:00 7.9 4 Sudeste 9 Sudeste 0 -- -- 67
2020-01-08 17:00:00 12.3 4 Sur 12 Oeste 0 -- -- 53
2020-01-08 16:00:00 15.4 5 Sudoeste 8 Sudoeste 0 -- -- 40
2020-01-08 15:00:00 14.7 3 Sudeste 8 Sur 0 -- -- 42
2020-01-08 14:00:00 13.7 4 Sur 10 Sudeste 0 -- -- 44
2020-01-08 13:00:00 9.6 3 Sudeste 11 Sur 0 -- -- 62
2020-01-08 12:00:00 4.6 0 Calma 6 Nordeste 0 -- -- 83
2020-01-08 11:00:00 1.2 0 Calma 4 Nordeste 0 -- -- 96
2020-01-08 10:00:00 -1.1 2 Nordeste 5 Norte 0 -- -- 97
2020-01-08 09:00:00 -2.4 0 Calma 3 Nordeste 0 -- -- 96
2020-01-08 08:00:00 -2.6 0 Calma 4 Nordeste 0 -- -- 96
2020-01-08 07:00:00 -2.5 0 Calma 3 Este 0 -- -- 95
2020-01-08 06:00:00 -2.3 0 Calma 4 Este 0 -- -- 95
2020-01-08 05:00:00 -2.1 0 Calma 4 Sudoeste 0 -- -- 95
2020-01-08 04:00:00 -2 0 Calma 3 Sudeste 0 -- -- 95
2020-01-08 03:00:00 -2 0 Calma 2 Sudeste 0 -- -- 94
2020-01-08 02:00:00 -1.6 0 Calma 2 Norte 0 -- -- 94
2020-01-08 01:00:00 -1.4 0 Calma 3 Nordeste 0 -- -- 93
2020-01-08 00:00:00 -1.2 0 Calma 5 Sudeste 0 -- -- 92
2020-01-07 23:00:00 -0.8 0 Calma 4 Nordeste 0 -- -- 92
2020-01-07 22:00:00 -0.5 0 Calma 6 Sudeste 0 -- -- 90
2020-01-07 21:00:00 0.4 2 Sudeste 4 Norte 0 -- -- 88
2020-01-07 20:00:00 1.4 0 Calma 4 Este 0 -- -- 82
2020-01-07 19:00:00 3.4 0 Calma 5 Este 0 -- -- 76
2020-01-07 18:00:00 5.7 3 Este 8 Sur 0 -- -- 64
2020-01-07 17:00:00 9.7 4 Sur 8 Sudoeste 0 -- -- 54
2020-01-07 16:00:00 11.8 0 Calma 5 Sur 0 -- -- 45
2020-01-07 15:00:00 10.9 6 Sudoeste 10 Sudoeste 0 -- -- 46
2020-01-07 14:00:00 8.7 0 Calma 6 Este 0 -- -- 48
2020-01-07 13:00:00 5.9 0 Calma 7 Nordeste 0 -- -- 62
2020-01-07 12:00:00 2.5 0 Calma 6 Nordeste 0 -- -- 75
2020-01-07 11:00:00 -0.7 0 Calma 4 Este 0 -- -- 95
2020-01-07 10:00:00 -3.3 0 Calma 3 Nordeste 0 -- -- 96
2020-01-07 09:00:00 -4.8 0 Calma 3 Nordeste 0 -- -- 94
2020-01-07 08:00:00 -4.6 0 Calma 4 Norte 0 -- -- 94
2020-01-07 07:00:00 -4.5 0 Calma 5 Oeste 0 -- -- 94
2020-01-07 06:00:00 -4.2 0 Calma 4 Nordeste 0 -- -- 94
2020-01-07 05:00:00 -3.9 0 Calma 3 Sudeste 0 -- -- 94
2020-01-07 04:00:00 -3.4 0 Calma 5 Sudoeste 0 -- -- 94
2020-01-07 03:00:00 -3 0 Calma 5 Oeste 0 -- -- 94
2020-01-07 02:00:00 -2.6 0 Calma 5 Nordeste 0 -- -- 94
2020-01-07 01:00:00 -2.3 0 Calma 4 Nordeste 0 -- -- 93
2020-01-07 00:00:00 -1.8 2 Nordeste 4 Norte 0 -- -- 92
2020-01-06 23:00:00 -1.4 0 Calma 5 Nordeste 0 -- -- 91
2020-01-06 22:00:00 -0.8 0 Calma 6 Oeste 0 -- -- 89
2020-01-06 21:00:00 0.2 0 Calma 5 Este 0 -- -- 87
2020-01-06 20:00:00 1.1 0 Calma 6 Este 0 -- -- 82
2020-01-06 19:00:00 2.5 3 Sudeste 6 Sudeste 0 -- -- 76
2020-01-06 18:00:00 5.4 3 Sudeste 6 Sudeste 0 -- -- 67
2020-01-06 17:00:00 9.5 6 Oeste 13 Oeste 0 -- -- 51
2020-01-06 16:00:00 10.9 9 Oeste 17 Oeste 0 -- -- 45
2020-01-06 15:00:00 12.3 5 Oeste 9 Oeste 0 -- -- 40
2020-01-06 14:00:00 10.2 0 Calma 8 Oeste 0 -- -- 46
2020-01-06 13:00:00 6.5 3 Oeste 6 Este 0 -- -- 62
2020-01-06 12:00:00 2.5 3 Sudeste 6 Sudeste 0 -- -- 81
2020-01-06 11:00:00 -1.1 0 Calma 3 Sudoeste 0 -- -- 94
2020-01-06 10:00:00 -3.4 0 Calma 3 Este 0 -- -- 96